AirNav   Phillips 66 Aviation Fuel
 
 529 users online  

38WA Blakely Island Airport
Blakely Island, Washington, USA

GOING TO BLAKELY ISLAND?


FAA INFORMATION EFFECTIVE 03 JANUARY 2019

Location

FAA Identifier: 38WA
Lat/Long: 48-34-44.3700N / 122-49-34.6470W
48-34.739500N / 122-49.577450W
48.5789917 / -122.8262908
(estimated)
Elevation: 66 ft. / 20.1 m (surveyed)
Variation: 21E (1985)
Time zone: UTC -8 (UTC -7 during Daylight Saving Time)
Zip code: 98222

Airport Operations

Airport use: Private use. Permission required prior to landing
Activation date: 01/1948
Control tower: no
ARTCC: SEATTLE CENTER
FSS: SEATTLE FLIGHT SERVICE STATION
Attendance: CONTINUOUS
Wind indicator: lighted
Segmented circle: no
Lights: ACTVT MIRL RY 01/19 - 122.9.

Airport Communications

WX AWOS-3 at ORS (8 nm NW): 135.425 (360-376-6045)
WX ASOS at FHR (9 nm SW): 135.675 (360-378-8491)
WX ASOS at BLI (17 nm NE): PHONE 360-671-8688
WX AWOS-3 at BVS (17 nm E): 121.125 (360-757-7767)
  • MULTICOM FREQ 122.9.

Nearby radio navigation aids

VOR radial/distance  VOR name  Freq  Var
CVVr330/20.5PENN COVE VOR/DME117.2019E
HUHr184/24.1WHATCOM VORTAC113.0020E
YYJr092/27.6VICTORIA VOR/DME113.7017E
YVRr140/32.5VANCOUVER VOR/DME115.9017E

 
NDB name  Hdg/Dist  Freq  Var  ID
FRIDAY HARBOR046/8.828417EFHR ..-. .... .-.
SKAGIT/BAY VIEW276/17.524016EBVS -... ...- ...

Airport Services

Runway Information

Runway 1/19

Dimensions: 2200 x 40 ft. / 671 x 12 m
ADDNL 200 X 40' OVRNS & TURBC BOTH ENDS RWY 01/19.
Surface: asphalt
Runway edge lights: medium intensity
RUNWAY 1  RUNWAY 19
Traffic pattern: leftright
Displaced threshold: 252 ft.122 ft.
Obstructions: trees, 2000 ft. from runwaytrees, 2000 ft. from runway

Airport Ownership and Management from official FAA records

Ownership: Privately-owned
Owner: BLAKELY ISLAND MAINT COM
355 BLAKELY DR
BLAKELY ISLAND, WA 98222
Manager: DAN ROACH
466 MARINE DR
BLAKLEY ISLAND, WA 98222
Phone 360-375-6294
SECONDARY PHONE 206-276-3054 DECRRR@GMAIL.COM SECONDARY CONTACT JOEL STEWARD 509-435-7591 360-375-6662

Airport Operational Statistics

Aircraft based on the field: 11
Single engine airplanes: 5
Multi engine airplanes: 6
    

Additional Remarks

TREES BOTH SIDES OF RWY PENT TRSNL SFC.
WATCH FOR DEER ON RWY.
MIDDLE RY 01/19 HIGHER THAN EITHER END. CHECK ARPT TFC FM RUN-UP PAD CENTER OF FLD BEFORE TKOF.

Instrument Procedures

There are no published instrument procedures at 38WA.

Some nearby airports with instrument procedures:

KORS - Orcas Island Airport (8 nm NW)
KFHR - Friday Harbor Airport (9 nm SW)
KNUW - Whidbey Island Naval Air Station (Ault Field) (15 nm SE)
KBLI - Bellingham International Airport (17 nm NE)
KBVS - Skagit Regional Airport (17 nm E)
 
Loc | Ops | Rwys | IFR | FBO | Links
Com | Nav | Svcs | Stats | Notes
Area around 38WA (Blakely Island Airport)
 
Road maps at: MapQuest Bing Google
 
Aerial photo
WARNING: Photo may not be current or correct
Aerial photo of 38WA (Blakely Island Airport)
Photo by Domenick Venezia, 2003-09

Do you have a better or more recent aerial photo of Blakely Island Airport that you would like to share? If so, please send us your photo.

 
Sectional chart

 
Airport distance calculator
Flying to Blakely Island Airport? Find the distance to fly.

From to 38WA

Sunrise and sunset
Times for 18-Jan-2019
 Local
(UTC-8)
 Zulu
(UTC)
Morning civil twilight07:2215:22
Sunrise07:5715:57
Sunset16:4700:47
Evening civil twilight17:2201:22

Current date and time
Zulu (UTC)  19-Jan-2019 05:44:52
Local (UTC-8)  18-Jan-2019 21:44:52
 
METAR
KORS 
8nm N 
190535Z AUTO 09007G13KT 050V200 8SM -RA SCT028 BKN034 OVC060 09/06 A2973 RMK AO2
74S 
8nm SE 
SuperAWOS
190438Z AUTO 08009G19KT 10SM 08/06 A2979
KFHR 
9nm SW 
190535Z AUTO 11016G22KT 10SM BKN014 BKN019 OVC065 08/06 A2974 RMK AO2 RAE34 P0000 T00780056
CWEZ 
14nm NW 
190500Z AUTO 11026G31KT RMK AO1 PK WND 11031/0452 58038
KNUW 
15nm SE 
190456Z 13014KT 9SM -RA FEW025 BKN045 OVC080 09/06 A2979 RMK AO2 PK WND 13026/0406 SLP088 P0004 T00890056 $
CWZO 
16nm W 
190300Z AUTO 17023G28KT RMK AO1 PK WND 16033/0201
KBVS 
18nm E 
190535Z AUTO 12006G15KT 10SM OVC036 08/06 A2978 RMK A01
KBLI 
18nm NE 
190453Z 04009KT 9SM -RA SCT040 OVC050 07/04 A2980 RMK AO2 RAE07B38 PRESFR SLP098 P0001 T00720044
CWYJ 
20nm SW 
190500Z AUTO 12004KT 07/06 RMK AO1 9PAST HR 8035 SLP059 P0004 T00740060 50014
TAF
KNUW 
15nm SE 
1823/1923 15021G36KT 9999 VCSH SCT020 BKN050 BKN100 OVC200 640509 641404 530009 550909 551809 QNH2978INS TEMPO 1900/1907 14015G27KT 9999 -SHRA BKN020 BKN040 OVC080 FM190700 15024G42KT 9000 -SHRA BR BKN020 BKN040 OVC080 WSCONDS 640509 641404 530009 550909 QNH2973INS TEMPO 1909/1915 15018G35KT 9999 SCT020 BKN040 BKN080 OVC160 FM191800 16014G20KT SCT030 BKN050 BKN140 BKN250 600000 500000 QNH3000INS T12/1823Z T06/1910Z FS30028
KBLI 
18nm NE 
181724Z 1818/1918 15012G20KT P6SM SCT020 BKN035 FM181900 15012KT P6SM SCT035 BKN050 FM182300 10013KT P6SM BKN050 OVC080 FM190300 11015G24KT P6SM -RA OVC045 FM190600 14018G27KT P6SM -RA OVC035 FM191400 18010KT P6SM -RA OVC035
NOTAMs
Click for the latest NOTAMs
NOTAMs are issued by the DoD/FAA and will open in a separate window not controlled by AirNav.

 

 
 

Would you like to see your business listed on this page?

 If your business provides an interesting product or service to pilots, flight crews, aircraft, or users of the Blakely Island Airport, you should consider listing it here.  To start the listing process, click on the button below
 
Add a business
 

Other Pages about Blakely Island Airport

www.rockisland.com/...
 
Update a link
 
Copyright © AirNav, LLC. All rights reserved. Privacy Policy  Contact